sensor_id;sensor_type;location;lat;lon;timestamp;P1;durP1;ratioP1;P2;durP2;ratioP2
22026;SDS011;11177;50.966;10.070;2024-02-14T00:00:18;7.68;;;2.90;;
22026;SDS011;11177;50.966;10.070;2024-02-14T00:02:45;6.97;;;3.42;;
22026;SDS011;11177;50.966;10.070;2024-02-14T00:05:16;5.97;;;2.95;;
22026;SDS011;11177;50.966;10.070;2024-02-14T00:07:43;9.43;;;3.13;;
22026;SDS011;11177;50.966;10.070;2024-02-14T00:10:10;6.40;;;3.03;;
22026;SDS011;11177;50.966;10.070;2024-02-14T00:12:37;5.28;;;3.03;;
22026;SDS011;11177;50.966;10.070;2024-02-14T00:15:04;4.60;;;2.80;;
22026;SDS011;11177;50.966;10.070;2024-02-14T00:17:34;7.68;;;2.75;;
22026;SDS011;11177;50.966;10.070;2024-02-14T00:20:02;5.68;;;3.08;;
22026;SDS011;11177;50.966;10.070;2024-02-14T00:22:30;5.07;;;3.08;;
22026;SDS011;11177;50.966;10.070;2024-02-14T00:24:57;4.40;;;2.70;;
22026;SDS011;11177;50.966;10.070;2024-02-14T00:27:24;4.60;;;2.75;;
22026;SDS011;11177;50.966;10.070;2024-02-14T00:29:53;4.80;;;2.55;;
22026;SDS011;11177;50.966;10.070;2024-02-14T00:32:21;3.58;;;2.50;;
22026;SDS011;11177;50.966;10.070;2024-02-14T00:34:48;4.68;;;2.40;;
22026;SDS011;11177;50.966;10.070;2024-02-14T00:37:17;7.68;;;2.60;;
22026;SDS011;11177;50.966;10.070;2024-02-14T00:39:45;5.40;;;2.53;;
22026;SDS011;11177;50.966;10.070;2024-02-14T00:42:15;7.97;;;3.35;;
22026;SDS011;11177;50.966;10.070;2024-02-14T00:44:42;7.30;;;2.92;;
22026;SDS011;11177;50.966;10.070;2024-02-14T00:47:13;6.70;;;2.90;;
22026;SDS011;11177;50.966;10.070;2024-02-14T00:49:39;7.65;;;2.97;;
22026;SDS011;11177;50.966;10.070;2024-02-14T00:52:07;6.97;;;2.83;;
22026;SDS011;11177;50.966;10.070;2024-02-14T00:54:36;6.90;;;3.10;;
22026;SDS011;11177;50.966;10.070;2024-02-14T00:57:03;5.65;;;3.00;;
22026;SDS011;11177;50.966;10.070;2024-02-14T00:59:30;4.80;;;2.83;;
22026;SDS011;11177;50.966;10.070;2024-02-14T01:01:57;6.97;;;3.05;;
22026;SDS011;11177;50.966;10.070;2024-02-14T01:04:24;5.88;;;3.05;;
22026;SDS011;11177;50.966;10.070;2024-02-14T01:06:51;6.70;;;3.28;;
22026;SDS011;11177;50.966;10.070;2024-02-14T01:09:18;5.88;;;3.20;;
22026;SDS011;11177;50.966;10.070;2024-02-14T01:11:45;6.65;;;3.30;;
22026;SDS011;11177;50.966;10.070;2024-02-14T01:14:12;6.88;;;3.72;;
22026;SDS011;11177;50.966;10.070;2024-02-14T01:16:44;6.68;;;3.20;;
22026;SDS011;11177;50.966;10.070;2024-02-14T01:19:11;6.95;;;3.22;;
22026;SDS011;11177;50.966;10.070;2024-02-14T01:21:39;4.43;;;2.90;;
22026;SDS011;11177;50.966;10.070;2024-02-14T01:24:06;7.60;;;3.30;;
22026;SDS011;11177;50.966;10.070;2024-02-14T01:26:35;5.45;;;2.85;;
22026;SDS011;11177;50.966;10.070;2024-02-14T01:29:02;6.75;;;3.20;;
22026;SDS011;11177;50.966;10.070;2024-02-14T01:31:35;4.95;;;2.88;;
22026;SDS011;11177;50.966;10.070;2024-02-14T01:34:02;7.97;;;3.33;;
22026;SDS011;11177;50.966;10.070;2024-02-14T01:36:29;5.65;;;3.00;;
22026;SDS011;11177;50.966;10.070;2024-02-14T01:38:56;7.18;;;2.92;;
22026;SDS011;11177;50.966;10.070;2024-02-14T01:41:23;5.03;;;2.90;;
22026;SDS011;11177;50.966;10.070;2024-02-14T01:43:50;7.05;;;2.88;;
22026;SDS011;11177;50.966;10.070;2024-02-14T01:46:17;4.78;;;2.75;;
22026;SDS011;11177;50.966;10.070;2024-02-14T01:48:45;4.80;;;2.80;;
22026;SDS011;11177;50.966;10.070;2024-02-14T01:51:12;7.43;;;3.08;;
22026;SDS011;11177;50.966;10.070;2024-02-14T01:53:39;11.57;;;3.30;;
22026;SDS011;11177;50.966;10.070;2024-02-14T01:56:06;8.15;;;3.38;;
22026;SDS011;11177;50.966;10.070;2024-02-14T01:58:37;9.20;;;3.60;;
22026;SDS011;11177;50.966;10.070;2024-02-14T02:01:05;4.18;;;2.50;;
22026;SDS011;11177;50.966;10.070;2024-02-14T02:03:32;6.25;;;2.50;;
22026;SDS011;11177;50.966;10.070;2024-02-14T02:06:02;5.50;;;1.95;;
22026;SDS011;11177;50.966;10.070;2024-02-14T02:08:30;3.97;;;1.80;;
22026;SDS011;11177;50.966;10.070;2024-02-14T02:10:59;3.45;;;1.67;;
22026;SDS011;11177;50.966;10.070;2024-02-14T02:13:26;5.85;;;2.20;;
22026;SDS011;11177;50.966;10.070;2024-02-14T02:15:53;2.60;;;1.38;;
22026;SDS011;11177;50.966;10.070;2024-02-14T02:18:20;5.78;;;1.50;;
22026;SDS011;11177;50.966;10.070;2024-02-14T02:20:47;1.83;;;1.10;;
22026;SDS011;11177;50.966;10.070;2024-02-14T02:23:14;2.85;;;1.00;;
22026;SDS011;11177;50.966;10.070;2024-02-14T02:25:42;3.80;;;1.10;;
22026;SDS011;11177;50.966;10.070;2024-02-14T02:28:09;3.13;;;1.20;;
22026;SDS011;11177;50.966;10.070;2024-02-14T02:30:36;2.42;;;0.88;;
22026;SDS011;11177;50.966;10.070;2024-02-14T02:33:04;4.68;;;1.50;;
22026;SDS011;11177;50.966;10.070;2024-02-14T02:35:33;3.22;;;1.00;;
22026;SDS011;11177;50.966;10.070;2024-02-14T02:38:01;3.53;;;1.27;;
22026;SDS011;11177;50.966;10.070;2024-02-14T02:40:28;2.92;;;1.27;;
22026;SDS011;11177;50.966;10.070;2024-02-14T02:42:55;5.30;;;1.23;;
22026;SDS011;11177;50.966;10.070;2024-02-14T02:45:22;2.78;;;1.17;;
22026;SDS011;11177;50.966;10.070;2024-02-14T02:47:49;2.10;;;1.20;;
22026;SDS011;11177;50.966;10.070;2024-02-14T02:50:19;3.10;;;1.00;;
22026;SDS011;11177;50.966;10.070;2024-02-14T02:52:46;2.90;;;1.13;;
22026;SDS011;11177;50.966;10.070;2024-02-14T02:55:14;3.13;;;0.90;;
22026;SDS011;11177;50.966;10.070;2024-02-14T02:57:45;4.05;;;1.20;;
22026;SDS011;11177;50.966;10.070;2024-02-14T03:00:12;2.03;;;1.00;;
22026;SDS011;11177;50.966;10.070;2024-02-14T03:02:40;1.92;;;1.00;;
22026;SDS011;11177;50.966;10.070;2024-02-14T03:05:14;3.05;;;1.17;;
22026;SDS011;11177;50.966;10.070;2024-02-14T03:07:50;1.15;;;0.85;;
22026;SDS011;11177;50.966;10.070;2024-02-14T03:10:23;2.17;;;1.30;;
22026;SDS011;11177;50.966;10.070;2024-02-14T03:12:51;5.32;;;1.10;;
22026;SDS011;11177;50.966;10.070;2024-02-14T03:15:18;2.05;;;0.95;;
22026;SDS011;11177;50.966;10.070;2024-02-14T03:17:46;1.95;;;0.82;;
22026;SDS011;11177;50.966;10.070;2024-02-14T03:20:13;5.18;;;1.00;;
22026;SDS011;11177;50.966;10.070;2024-02-14T03:22:43;4.68;;;0.93;;
22026;SDS011;11177;50.966;10.070;2024-02-14T03:25:15;2.42;;;1.08;;
22026;SDS011;11177;50.966;10.070;2024-02-14T03:27:43;2.90;;;0.85;;
22026;SDS011;11177;50.966;10.070;2024-02-14T03:30:16;3.55;;;1.00;;
22026;SDS011;11177;50.966;10.070;2024-02-14T03:32:45;4.13;;;1.10;;
22026;SDS011;11177;50.966;10.070;2024-02-14T03:35:13;1.80;;;1.10;;
22026;SDS011;11177;50.966;10.070;2024-02-14T03:37:40;4.05;;;0.90;;
22026;SDS011;11177;50.966;10.070;2024-02-14T03:40:08;3.47;;;1.13;;
22026;SDS011;11177;50.966;10.070;2024-02-14T03:42:36;3.72;;;1.10;;
22026;SDS011;11177;50.966;10.070;2024-02-14T03:45:06;2.38;;;1.20;;
22026;SDS011;11177;50.966;10.070;2024-02-14T03:47:34;1.65;;;0.90;;
22026;SDS011;11177;50.966;10.070;2024-02-14T03:50:07;2.97;;;0.90;;
22026;SDS011;11177;50.966;10.070;2024-02-14T03:52:35;2.97;;;1.10;;
22026;SDS011;11177;50.966;10.070;2024-02-14T03:55:02;4.95;;;1.00;;
22026;SDS011;11177;50.966;10.070;2024-02-14T03:57:30;3.13;;;1.00;;
22026;SDS011;11177;50.966;10.070;2024-02-14T03:59:59;2.75;;;1.13;;
22026;SDS011;11177;50.966;10.070;2024-02-14T04:02:28;6.15;;;1.30;;
22026;SDS011;11177;50.966;10.070;2024-02-14T04:04:55;3.42;;;1.02;;
22026;SDS011;11177;50.966;10.070;2024-02-14T04:07:22;2.65;;;0.90;;
22026;SDS011;11177;50.966;10.070;2024-02-14T04:09:49;3.60;;;1.10;;
22026;SDS011;11177;50.966;10.070;2024-02-14T04:12:16;1.58;;;0.90;;
22026;SDS011;11177;50.966;10.070;2024-02-14T04:14:43;3.22;;;1.00;;
22026;SDS011;11177;50.966;10.070;2024-02-14T04:17:10;8.40;;;1.35;;
22026;SDS011;11177;50.966;10.070;2024-02-14T04:19:39;3.00;;;1.00;;
22026;SDS011;11177;50.966;10.070;2024-02-14T04:22:06;4.22;;;1.10;;
22026;SDS011;11177;50.966;10.070;2024-02-14T04:24:33;3.05;;;1.00;;
22026;SDS011;11177;50.966;10.070;2024-02-14T04:27:01;4.38;;;1.33;;
22026;SDS011;11177;50.966;10.070;2024-02-14T04:29:31;5.72;;;1.33;;
22026;SDS011;11177;50.966;10.070;2024-02-14T04:32:01;4.90;;;1.30;;
22026;SDS011;11177;50.966;10.070;2024-02-14T04:34:28;3.40;;;1.40;;
22026;SDS011;11177;50.966;10.070;2024-02-14T04:36:57;2.53;;;1.30;;
22026;SDS011;11177;50.966;10.070;2024-02-14T04:39:24;2.85;;;0.90;;
22026;SDS011;11177;50.966;10.070;2024-02-14T04:41:54;3.78;;;1.17;;
22026;SDS011;11177;50.966;10.070;2024-02-14T04:44:28;4.10;;;1.00;;
22026;SDS011;11177;50.966;10.070;2024-02-14T04:46:56;1.88;;;1.20;;
22026;SDS011;11177;50.966;10.070;2024-02-14T04:49:26;3.78;;;1.23;;
22026;SDS011;11177;50.966;10.070;2024-02-14T04:51:56;2.13;;;1.05;;
22026;SDS011;11177;50.966;10.070;2024-02-14T04:54:23;3.60;;;1.10;;
22026;SDS011;11177;50.966;10.070;2024-02-14T04:56:53;3.08;;;1.00;;
22026;SDS011;11177;50.966;10.070;2024-02-14T04:59:25;3.15;;;1.08;;
22026;SDS011;11177;50.966;10.070;2024-02-14T05:01:52;4.45;;;1.20;;
22026;SDS011;11177;50.966;10.070;2024-02-14T05:04:20;7.38;;;1.38;;
22026;SDS011;11177;50.966;10.070;2024-02-14T05:06:48;4.28;;;1.50;;
22026;SDS011;11177;50.966;10.070;2024-02-14T05:09:16;3.33;;;1.20;;
22026;SDS011;11177;50.966;10.070;2024-02-14T05:11:43;2.45;;;1.35;;
22026;SDS011;11177;50.966;10.070;2024-02-14T05:14:10;3.67;;;1.50;;
22026;SDS011;11177;50.966;10.070;2024-02-14T05:16:37;2.47;;;1.10;;
22026;SDS011;11177;50.966;10.070;2024-02-14T05:19:04;2.65;;;1.20;;
22026;SDS011;11177;50.966;10.070;2024-02-14T05:21:31;3.08;;;1.20;;
22026;SDS011;11177;50.966;10.070;2024-02-14T05:23:58;3.85;;;1.48;;
22026;SDS011;11177;50.966;10.070;2024-02-14T05:26:25;6.38;;;1.40;;
22026;SDS011;11177;50.966;10.070;2024-02-14T05:28:52;8.38;;;1.50;;
22026;SDS011;11177;50.966;10.070;2024-02-14T05:31:19;4.82;;;1.58;;
22026;SDS011;11177;50.966;10.070;2024-02-14T05:33:46;2.08;;;1.27;;
22026;SDS011;11177;50.966;10.070;2024-02-14T05:36:13;3.55;;;1.50;;
22026;SDS011;11177;50.966;10.070;2024-02-14T05:38:40;4.13;;;1.40;;
22026;SDS011;11177;50.966;10.070;2024-02-14T05:41:07;2.45;;;1.58;;
22026;SDS011;11177;50.966;10.070;2024-02-14T05:43:34;5.30;;;1.30;;
22026;SDS011;11177;50.966;10.070;2024-02-14T05:46:01;1.88;;;1.20;;
22026;SDS011;11177;50.966;10.070;2024-02-14T05:48:28;3.70;;;1.27;;
22026;SDS011;11177;50.966;10.070;2024-02-14T05:50:58;3.35;;;1.50;;
22026;SDS011;11177;50.966;10.070;2024-02-14T05:53:24;2.38;;;1.17;;
22026;SDS011;11177;50.966;10.070;2024-02-14T05:55:51;5.90;;;1.58;;
22026;SDS011;11177;50.966;10.070;2024-02-14T05:58:18;5.40;;;1.52;;
22026;SDS011;11177;50.966;10.070;2024-02-14T06:00:45;3.95;;;1.60;;
22026;SDS011;11177;50.966;10.070;2024-02-14T06:03:13;3.65;;;1.48;;
22026;SDS011;11177;50.966;10.070;2024-02-14T06:05:40;4.35;;;1.50;;
22026;SDS011;11177;50.966;10.070;2024-02-14T06:08:07;4.10;;;2.55;;
22026;SDS011;11177;50.966;10.070;2024-02-14T06:10:34;11.38;;;4.40;;
22026;SDS011;11177;50.966;10.070;2024-02-14T06:13:01;4.57;;;1.75;;
22026;SDS011;11177;50.966;10.070;2024-02-14T06:15:28;3.95;;;1.42;;
22026;SDS011;11177;50.966;10.070;2024-02-14T06:17:55;5.45;;;2.13;;
22026;SDS011;11177;50.966;10.070;2024-02-14T06:20:23;2.65;;;1.55;;
22026;SDS011;11177;50.966;10.070;2024-02-14T06:22:50;3.95;;;1.60;;
22026;SDS011;11177;50.966;10.070;2024-02-14T06:25:30;4.43;;;1.45;;
22026;SDS011;11177;50.966;10.070;2024-02-14T06:27:57;5.18;;;2.00;;
22026;SDS011;11177;50.966;10.070;2024-02-14T06:30:24;4.60;;;1.65;;
22026;SDS011;11177;50.966;10.070;2024-02-14T06:32:56;5.30;;;1.90;;
22026;SDS011;11177;50.966;10.070;2024-02-14T06:35:28;4.30;;;1.92;;
22026;SDS011;11177;50.966;10.070;2024-02-14T06:37:57;4.65;;;2.10;;
22026;SDS011;11177;50.966;10.070;2024-02-14T06:40:30;5.78;;;2.10;;
22026;SDS011;11177;50.966;10.070;2024-02-14T06:42:58;6.22;;;2.30;;
22026;SDS011;11177;50.966;10.070;2024-02-14T06:45:27;4.93;;;2.10;;
22026;SDS011;11177;50.966;10.070;2024-02-14T06:47:54;6.63;;;2.20;;
22026;SDS011;11177;50.966;10.070;2024-02-14T06:50:22;6.00;;;1.80;;
22026;SDS011;11177;50.966;10.070;2024-02-14T06:52:52;4.03;;;1.70;;
22026;SDS011;11177;50.966;10.070;2024-02-14T06:55:22;6.60;;;2.00;;
22026;SDS011;11177;50.966;10.070;2024-02-14T06:57:49;5.03;;;1.98;;
22026;SDS011;11177;50.966;10.070;2024-02-14T07:00:16;5.88;;;1.73;;
22026;SDS011;11177;50.966;10.070;2024-02-14T07:02:43;4.40;;;1.83;;
22026;SDS011;11177;50.966;10.070;2024-02-14T07:05:11;3.47;;;1.98;;
22026;SDS011;11177;50.966;10.070;2024-02-14T07:07:41;5.07;;;2.20;;
22026;SDS011;11177;50.966;10.070;2024-02-14T07:10:08;4.97;;;2.25;;
22026;SDS011;11177;50.966;10.070;2024-02-14T07:12:35;5.10;;;1.92;;
22026;SDS011;11177;50.966;10.070;2024-02-14T07:15:07;3.95;;;1.95;;
22026;SDS011;11177;50.966;10.070;2024-02-14T07:17:35;4.93;;;2.22;;
22026;SDS011;11177;50.966;10.070;2024-02-14T07:20:02;2.55;;;1.88;;
22026;SDS011;11177;50.966;10.070;2024-02-14T07:22:30;5.50;;;2.20;;
22026;SDS011;11177;50.966;10.070;2024-02-14T07:24:57;3.50;;;2.08;;
22026;SDS011;11177;50.966;10.070;2024-02-14T07:27:24;3.22;;;2.05;;
22026;SDS011;11177;50.966;10.070;2024-02-14T07:29:51;3.75;;;2.45;;
22026;SDS011;11177;50.966;10.070;2024-02-14T07:32:18;7.00;;;2.50;;
22026;SDS011;11177;50.966;10.070;2024-02-14T07:34:46;4.53;;;2.20;;
22026;SDS011;11177;50.966;10.070;2024-02-14T07:37:13;5.70;;;2.50;;
22026;SDS011;11177;50.966;10.070;2024-02-14T07:39:42;6.95;;;2.60;;
22026;SDS011;11177;50.966;10.070;2024-02-14T07:42:09;5.53;;;2.58;;
22026;SDS011;11177;50.966;10.070;2024-02-14T07:44:38;6.28;;;2.55;;
22026;SDS011;11177;50.966;10.070;2024-02-14T07:47:05;7.15;;;2.30;;
22026;SDS011;11177;50.966;10.070;2024-02-14T07:49:33;8.70;;;2.45;;
22026;SDS011;11177;50.966;10.070;2024-02-14T07:52:00;4.28;;;2.35;;
22026;SDS011;11177;50.966;10.070;2024-02-14T07:54:27;4.43;;;2.20;;
22026;SDS011;11177;50.966;10.070;2024-02-14T07:56:54;5.80;;;2.55;;
22026;SDS011;11177;50.966;10.070;2024-02-14T07:59:21;4.03;;;2.63;;
22026;SDS011;11177;50.966;10.070;2024-02-14T08:01:48;4.47;;;2.42;;
22026;SDS011;11177;50.966;10.070;2024-02-14T08:04:15;5.50;;;2.58;;
22026;SDS011;11177;50.966;10.070;2024-02-14T08:06:46;5.80;;;2.55;;
22026;SDS011;11177;50.966;10.070;2024-02-14T08:09:13;4.07;;;2.72;;
22026;SDS011;11177;50.966;10.070;2024-02-14T08:11:41;6.05;;;2.60;;
22026;SDS011;11177;50.966;10.070;2024-02-14T08:14:08;4.72;;;2.47;;
22026;SDS011;11177;50.966;10.070;2024-02-14T08:16:35;4.65;;;3.00;;
22026;SDS011;11177;50.966;10.070;2024-02-14T08:19:02;7.65;;;2.92;;
22026;SDS011;11177;50.966;10.070;2024-02-14T08:21:30;4.70;;;3.00;;
22026;SDS011;11177;50.966;10.070;2024-02-14T08:23:58;5.32;;;2.90;;
22026;SDS011;11177;50.966;10.070;2024-02-14T08:26:27;8.18;;;2.70;;
22026;SDS011;11177;50.966;10.070;2024-02-14T08:28:55;6.57;;;2.92;;
22026;SDS011;11177;50.966;10.070;2024-02-14T08:31:22;9.23;;;3.80;;
22026;SDS011;11177;50.966;10.070;2024-02-14T08:33:49;8.98;;;3.95;;
22026;SDS011;11177;50.966;10.070;2024-02-14T08:36:17;6.65;;;4.20;;
22026;SDS011;11177;50.966;10.070;2024-02-14T08:38:46;9.48;;;4.55;;
22026;SDS011;11177;50.966;10.070;2024-02-14T08:41:14;9.75;;;4.13;;
22026;SDS011;11177;50.966;10.070;2024-02-14T08:43:41;5.32;;;3.42;;
22026;SDS011;11177;50.966;10.070;2024-02-14T08:46:13;10.57;;;4.25;;
22026;SDS011;11177;50.966;10.070;2024-02-14T08:48:40;5.65;;;3.47;;
22026;SDS011;11177;50.966;10.070;2024-02-14T08:51:15;6.68;;;3.40;;
22026;SDS011;11177;50.966;10.070;2024-02-14T08:53:43;9.23;;;4.13;;
22026;SDS011;11177;50.966;10.070;2024-02-14T08:56:14;9.30;;;3.33;;
22026;SDS011;11177;50.966;10.070;2024-02-14T08:58:41;5.75;;;3.17;;
22026;SDS011;11177;50.966;10.070;2024-02-14T09:01:11;5.97;;;3.20;;
22026;SDS011;11177;50.966;10.070;2024-02-14T09:03:44;7.90;;;3.33;;
22026;SDS011;11177;50.966;10.070;2024-02-14T09:06:16;6.82;;;2.85;;
22026;SDS011;11177;50.966;10.070;2024-02-14T09:08:48;8.00;;;3.05;;
22026;SDS011;11177;50.966;10.070;2024-02-14T09:11:15;6.28;;;3.00;;
22026;SDS011;11177;50.966;10.070;2024-02-14T09:13:42;7.80;;;3.50;;
22026;SDS011;11177;50.966;10.070;2024-02-14T09:16:09;5.97;;;2.85;;
22026;SDS011;11177;50.966;10.070;2024-02-14T09:18:40;5.25;;;2.90;;
22026;SDS011;11177;50.966;10.070;2024-02-14T09:21:07;6.95;;;3.17;;
22026;SDS011;11177;50.966;10.070;2024-02-14T09:23:35;6.30;;;3.15;;
22026;SDS011;11177;50.966;10.070;2024-02-14T09:26:06;6.60;;;2.92;;
22026;SDS011;11177;50.966;10.070;2024-02-14T09:28:33;8.98;;;3.00;;
22026;SDS011;11177;50.966;10.070;2024-02-14T09:31:01;5.43;;;3.10;;
22026;SDS011;11177;50.966;10.070;2024-02-14T09:33:30;6.45;;;2.95;;
22026;SDS011;11177;50.966;10.070;2024-02-14T09:35:58;7.28;;;2.95;;
22026;SDS011;11177;50.966;10.070;2024-02-14T09:38:25;5.70;;;2.80;;
22026;SDS011;11177;50.966;10.070;2024-02-14T09:40:55;6.13;;;3.03;;
22026;SDS011;11177;50.966;10.070;2024-02-14T09:43:28;19.80;;;7.38;;
22026;SDS011;11177;50.966;10.070;2024-02-14T09:45:59;9.30;;;3.90;;
22026;SDS011;11177;50.966;10.070;2024-02-14T09:48:26;6.25;;;3.65;;
22026;SDS011;11177;50.966;10.070;2024-02-14T09:50:53;8.43;;;4.30;;
22026;SDS011;11177;50.966;10.070;2024-02-14T09:53:21;7.53;;;4.32;;
22026;SDS011;11177;50.966;10.070;2024-02-14T09:55:49;6.28;;;3.65;;
22026;SDS011;11177;50.966;10.070;2024-02-14T09:58:17;4.82;;;2.90;;
22026;SDS011;11177;50.966;10.070;2024-02-14T10:00:44;8.10;;;4.20;;
22026;SDS011;11177;50.966;10.070;2024-02-14T10:03:11;9.73;;;5.00;;
22026;SDS011;11177;50.966;10.070;2024-02-14T10:05:38;8.27;;;4.35;;
22026;SDS011;11177;50.966;10.070;2024-02-14T10:08:05;7.25;;;4.78;;
22026;SDS011;11177;50.966;10.070;2024-02-14T10:10:32;7.75;;;3.00;;
22026;SDS011;11177;50.966;10.070;2024-02-14T10:13:07;7.68;;;3.20;;
22026;SDS011;11177;50.966;10.070;2024-02-14T10:15:34;5.38;;;3.05;;
22026;SDS011;11177;50.966;10.070;2024-02-14T10:18:02;7.80;;;3.42;;
22026;SDS011;11177;50.966;10.070;2024-02-14T10:20:30;6.15;;;3.15;;
22026;SDS011;11177;50.966;10.070;2024-02-14T10:23:01;6.28;;;3.15;;
22026;SDS011;11177;50.966;10.070;2024-02-14T10:25:34;10.25;;;3.70;;
22026;SDS011;11177;50.966;10.070;2024-02-14T10:28:04;5.47;;;3.65;;
22026;SDS011;11177;50.966;10.070;2024-02-14T10:30:36;6.05;;;3.40;;
22026;SDS011;11177;50.966;10.070;2024-02-14T10:33:04;8.18;;;3.80;;
22026;SDS011;11177;50.966;10.070;2024-02-14T10:35:49;8.20;;;3.80;;
22026;SDS011;11177;50.966;10.070;2024-02-14T10:38:17;12.43;;;4.53;;
22026;SDS011;11177;50.966;10.070;2024-02-14T10:40:47;10.88;;;4.70;;
22026;SDS011;11177;50.966;10.070;2024-02-14T10:43:14;10.75;;;4.63;;
22026;SDS011;11177;50.966;10.070;2024-02-14T10:45:41;8.55;;;4.22;;
22026;SDS011;11177;50.966;10.070;2024-02-14T10:48:11;5.55;;;3.65;;
22026;SDS011;11177;50.966;10.070;2024-02-14T10:50:40;3.83;;;2.88;;
22026;SDS011;11177;50.966;10.070;2024-02-14T10:53:14;5.63;;;3.50;;
22026;SDS011;11177;50.966;10.070;2024-02-14T10:55:53;4.37;;;2.80;;
22026;SDS011;11177;50.966;10.070;2024-02-14T10:58:22;9.07;;;3.10;;
22026;SDS011;11177;50.966;10.070;2024-02-14T11:00:54;5.30;;;2.97;;
22026;SDS011;11177;50.966;10.070;2024-02-14T11:03:22;4.68;;;2.92;;
22026;SDS011;11177;50.966;10.070;2024-02-14T11:05:49;5.30;;;3.17;;
22026;SDS011;11177;50.966;10.070;2024-02-14T11:08:20;7.97;;;3.10;;
22026;SDS011;11177;50.966;10.070;2024-02-14T11:10:55;7.80;;;2.83;;
22026;SDS011;11177;50.966;10.070;2024-02-14T11:13:26;5.00;;;2.65;;
22026;SDS011;11177;50.966;10.070;2024-02-14T11:16:00;5.60;;;2.67;;
22026;SDS011;11177;50.966;10.070;2024-02-14T11:18:28;5.63;;;3.10;;
22026;SDS011;11177;50.966;10.070;2024-02-14T11:21:02;5.65;;;3.33;;
22026;SDS011;11177;50.966;10.070;2024-02-14T11:23:31;6.50;;;3.40;;
22026;SDS011;11177;50.966;10.070;2024-02-14T11:25:59;4.88;;;2.67;;
22026;SDS011;11177;50.966;10.070;2024-02-14T11:28:31;11.23;;;4.88;;
22026;SDS011;11177;50.966;10.070;2024-02-14T11:31:03;6.35;;;3.30;;
22026;SDS011;11177;50.966;10.070;2024-02-14T11:33:32;8.18;;;4.63;;
22026;SDS011;11177;50.966;10.070;2024-02-14T11:36:00;7.65;;;4.40;;
22026;SDS011;11177;50.966;10.070;2024-02-14T11:38:36;6.97;;;3.53;;
22026;SDS011;11177;50.966;10.070;2024-02-14T11:41:03;3.83;;;2.72;;
22026;SDS011;11177;50.966;10.070;2024-02-14T11:43:33;4.35;;;2.42;;
22026;SDS011;11177;50.966;10.070;2024-02-14T11:46:00;3.42;;;2.20;;
22026;SDS011;11177;50.966;10.070;2024-02-14T11:48:27;5.18;;;2.17;;
22026;SDS011;11177;50.966;10.070;2024-02-14T11:50:55;2.88;;;1.95;;
22026;SDS011;11177;50.966;10.070;2024-02-14T11:53:22;3.67;;;1.92;;
22026;SDS011;11177;50.966;10.070;2024-02-14T11:55:50;5.43;;;2.40;;
22026;SDS011;11177;50.966;10.070;2024-02-14T11:58:17;2.72;;;2.38;;
22026;SDS011;11177;50.966;10.070;2024-02-14T12:00:45;4.38;;;2.30;;
22026;SDS011;11177;50.966;10.070;2024-02-14T12:03:15;8.77;;;2.60;;
22026;SDS011;11177;50.966;10.070;2024-02-14T12:05:44;6.90;;;2.60;;
22026;SDS011;11177;50.966;10.070;2024-02-14T12:08:14;4.75;;;2.55;;
22026;SDS011;11177;50.966;10.070;2024-02-14T12:10:42;6.18;;;3.05;;
22026;SDS011;11177;50.966;10.070;2024-02-14T12:13:10;5.72;;;3.40;;
22026;SDS011;11177;50.966;10.070;2024-02-14T12:15:44;4.93;;;3.03;;
22026;SDS011;11177;50.966;10.070;2024-02-14T12:18:12;4.32;;;2.65;;
22026;SDS011;11177;50.966;10.070;2024-02-14T12:20:41;3.55;;;2.63;;
22026;SDS011;11177;50.966;10.070;2024-02-14T12:23:13;3.97;;;2.53;;
22026;SDS011;11177;50.966;10.070;2024-02-14T12:25:46;3.60;;;2.60;;
22026;SDS011;11177;50.966;10.070;2024-02-14T12:28:17;5.50;;;2.70;;
22026;SDS011;11177;50.966;10.070;2024-02-14T12:30:48;4.20;;;2.55;;
22026;SDS011;11177;50.966;10.070;2024-02-14T12:33:18;5.45;;;2.95;;
22026;SDS011;11177;50.966;10.070;2024-02-14T12:35:46;5.00;;;2.42;;
22026;SDS011;11177;50.966;10.070;2024-02-14T12:38:18;4.85;;;2.38;;
22026;SDS011;11177;50.966;10.070;2024-02-14T12:40:50;3.95;;;2.50;;
22026;SDS011;11177;50.966;10.070;2024-02-14T12:43:21;4.10;;;2.47;;
22026;SDS011;11177;50.966;10.070;2024-02-14T12:45:48;6.82;;;2.70;;
22026;SDS011;11177;50.966;10.070;2024-02-14T12:48:21;6.05;;;3.15;;
22026;SDS011;11177;50.966;10.070;2024-02-14T12:50:53;3.42;;;2.60;;
22026;SDS011;11177;50.966;10.070;2024-02-14T12:53:23;7.47;;;3.15;;
22026;SDS011;11177;50.966;10.070;2024-02-14T12:55:50;5.45;;;3.28;;
22026;SDS011;11177;50.966;10.070;2024-02-14T12:58:17;7.60;;;3.90;;
22026;SDS011;11177;50.966;10.070;2024-02-14T13:00:44;8.68;;;3.70;;
22026;SDS011;11177;50.966;10.070;2024-02-14T13:03:11;6.15;;;3.47;;
22026;SDS011;11177;50.966;10.070;2024-02-14T13:05:43;6.03;;;3.63;;
22026;SDS011;11177;50.966;10.070;2024-02-14T13:08:11;6.20;;;3.78;;
22026;SDS011;11177;50.966;10.070;2024-02-14T13:10:38;5.28;;;3.58;;
22026;SDS011;11177;50.966;10.070;2024-02-14T13:13:05;4.78;;;3.50;;
22026;SDS011;11177;50.966;10.070;2024-02-14T13:15:32;6.88;;;3.83;;
22026;SDS011;11177;50.966;10.070;2024-02-14T13:18:00;4.78;;;3.30;;
22026;SDS011;11177;50.966;10.070;2024-02-14T13:20:27;6.47;;;3.47;;
22026;SDS011;11177;50.966;10.070;2024-02-14T13:22:55;7.82;;;4.18;;
22026;SDS011;11177;50.966;10.070;2024-02-14T13:25:22;7.25;;;3.67;;
22026;SDS011;11177;50.966;10.070;2024-02-14T13:27:52;7.32;;;3.90;;
22026;SDS011;11177;50.966;10.070;2024-02-14T13:30:21;11.30;;;5.22;;
22026;SDS011;11177;50.966;10.070;2024-02-14T13:32:49;7.47;;;4.25;;
22026;SDS011;11177;50.966;10.070;2024-02-14T13:35:16;7.25;;;4.50;;
22026;SDS011;11177;50.966;10.070;2024-02-14T13:37:44;12.88;;;5.85;;
22026;SDS011;11177;50.966;10.070;2024-02-14T13:40:11;15.02;;;5.95;;
22026;SDS011;11177;50.966;10.070;2024-02-14T13:42:38;10.27;;;6.18;;
22026;SDS011;11177;50.966;10.070;2024-02-14T13:45:06;9.18;;;4.95;;
22026;SDS011;11177;50.966;10.070;2024-02-14T13:47:37;10.32;;;4.85;;
22026;SDS011;11177;50.966;10.070;2024-02-14T13:50:09;8.13;;;4.10;;
22026;SDS011;11177;50.966;10.070;2024-02-14T13:52:37;6.90;;;4.10;;
22026;SDS011;11177;50.966;10.070;2024-02-14T13:55:04;9.80;;;4.38;;
22026;SDS011;11177;50.966;10.070;2024-02-14T13:57:33;9.15;;;4.97;;
22026;SDS011;11177;50.966;10.070;2024-02-14T14:00:03;7.28;;;3.25;;
22026;SDS011;11177;50.966;10.070;2024-02-14T14:02:31;4.18;;;3.20;;
22026;SDS011;11177;50.966;10.070;2024-02-14T14:04:58;5.15;;;3.08;;
22026;SDS011;11177;50.966;10.070;2024-02-14T14:07:25;4.20;;;2.60;;
22026;SDS011;11177;50.966;10.070;2024-02-14T14:09:52;3.75;;;2.90;;
22026;SDS011;11177;50.966;10.070;2024-02-14T14:12:19;3.15;;;2.53;;
22026;SDS011;11177;50.966;10.070;2024-02-14T14:14:45;7.80;;;3.45;;
22026;SDS011;11177;50.966;10.070;2024-02-14T14:17:13;5.90;;;3.70;;
22026;SDS011;11177;50.966;10.070;2024-02-14T14:19:40;7.78;;;3.20;;
22026;SDS011;11177;50.966;10.070;2024-02-14T14:22:07;7.03;;;3.78;;
22026;SDS011;11177;50.966;10.070;2024-02-14T14:24:36;5.43;;;3.47;;
22026;SDS011;11177;50.966;10.070;2024-02-14T14:27:04;4.93;;;2.63;;
22026;SDS011;11177;50.966;10.070;2024-02-14T14:29:34;6.28;;;3.08;;
22026;SDS011;11177;50.966;10.070;2024-02-14T14:32:02;4.30;;;2.70;;
22026;SDS011;11177;50.966;10.070;2024-02-14T14:34:29;5.75;;;2.88;;
22026;SDS011;11177;50.966;10.070;2024-02-14T14:36:59;4.03;;;2.50;;
22026;SDS011;11177;50.966;10.070;2024-02-14T14:39:26;4.93;;;2.60;;